sensor_id;sensor_type;location;lat;lon;timestamp;P1;durP1;ratioP1;P2;durP2;ratioP2
56593;SDS011;42474;51.660;5.824;2023-03-03T00:03:30;31.8;;;15.7;;
56593;SDS011;42474;51.660;5.824;2023-03-03T00:08:30;34.1;;;16.0;;
56593;SDS011;42474;51.660;5.824;2023-03-03T00:13:31;32.5;;;16.2;;
56593;SDS011;42474;51.660;5.824;2023-03-03T00:18:35;30.5;;;15.7;;
56593;SDS011;42474;51.660;5.824;2023-03-03T00:23:30;32.2;;;15.9;;
56593;SDS011;42474;51.660;5.824;2023-03-03T00:28:30;31.6;;;16.0;;
56593;SDS011;42474;51.660;5.824;2023-03-03T00:33:30;31.3;;;15.4;;
56593;SDS011;42474;51.660;5.824;2023-03-03T00:38:33;30.1;;;14.7;;
56593;SDS011;42474;51.660;5.824;2023-03-03T00:43:35;32.3;;;14.9;;
56593;SDS011;42474;51.660;5.824;2023-03-03T00:48:31;33.2;;;15.3;;
56593;SDS011;42474;51.660;5.824;2023-03-03T00:53:30;29.5;;;14.0;;
56593;SDS011;42474;51.660;5.824;2023-03-03T00:58:30;25.8;;;13.1;;
56593;SDS011;42474;51.660;5.824;2023-03-03T01:03:30;30.4;;;14.0;;
56593;SDS011;42474;51.660;5.824;2023-03-03T01:08:30;30.1;;;14.3;;
56593;SDS011;42474;51.660;5.824;2023-03-03T01:13:30;32.3;;;15.7;;
56593;SDS011;42474;51.660;5.824;2023-03-03T01:18:30;29.5;;;14.5;;
56593;SDS011;42474;51.660;5.824;2023-03-03T01:23:30;31.3;;;14.7;;
56593;SDS011;42474;51.660;5.824;2023-03-03T01:28:30;28.8;;;13.5;;
56593;SDS011;42474;51.660;5.824;2023-03-03T01:33:30;31.9;;;14.4;;
56593;SDS011;42474;51.660;5.824;2023-03-03T01:38:30;30.1;;;15.0;;
56593;SDS011;42474;51.660;5.824;2023-03-03T01:43:30;30.8;;;14.2;;
56593;SDS011;42474;51.660;5.824;2023-03-03T01:48:30;32.6;;;15.3;;
56593;SDS011;42474;51.660;5.824;2023-03-03T01:53:34;32.2;;;14.9;;
56593;SDS011;42474;51.660;5.824;2023-03-03T01:58:33;31.7;;;14.6;;
56593;SDS011;42474;51.660;5.824;2023-03-03T02:03:30;32.5;;;14.3;;
56593;SDS011;42474;51.660;5.824;2023-03-03T02:08:37;34.0;;;15.3;;
56593;SDS011;42474;51.660;5.824;2023-03-03T02:13:30;35.2;;;15.9;;
56593;SDS011;42474;51.660;5.824;2023-03-03T02:18:30;33.6;;;16.5;;
56593;SDS011;42474;51.660;5.824;2023-03-03T02:23:32;36.4;;;15.8;;
56593;SDS011;42474;51.660;5.824;2023-03-03T02:28:31;31.8;;;14.2;;
56593;SDS011;42474;51.660;5.824;2023-03-03T02:33:30;34.5;;;14.8;;
56593;SDS011;42474;51.660;5.824;2023-03-03T02:38:31;30.5;;;14.3;;
56593;SDS011;42474;51.660;5.824;2023-03-03T02:43:30;34.8;;;13.7;;
56593;SDS011;42474;51.660;5.824;2023-03-03T02:48:30;35.2;;;13.7;;
56593;SDS011;42474;51.660;5.824;2023-03-03T02:53:30;34.8;;;14.9;;
56593;SDS011;42474;51.660;5.824;2023-03-03T02:58:30;37.3;;;14.8;;
56593;SDS011;42474;51.660;5.824;2023-03-03T03:03:30;34.5;;;14.5;;
56593;SDS011;42474;51.660;5.824;2023-03-03T03:08:30;36.1;;;14.5;;
56593;SDS011;42474;51.660;5.824;2023-03-03T03:13:30;33.2;;;14.7;;
56593;SDS011;42474;51.660;5.824;2023-03-03T03:18:30;31.6;;;13.6;;
56593;SDS011;42474;51.660;5.824;2023-03-03T03:23:30;29.4;;;13.2;;
56593;SDS011;42474;51.660;5.824;2023-03-03T03:28:30;27.2;;;11.6;;
56593;SDS011;42474;51.660;5.824;2023-03-03T03:33:30;27.9;;;11.9;;
56593;SDS011;42474;51.660;5.824;2023-03-03T03:38:30;25.6;;;12.1;;
56593;SDS011;42474;51.660;5.824;2023-03-03T03:43:30;27.7;;;12.0;;
56593;SDS011;42474;51.660;5.824;2023-03-03T03:48:30;28.1;;;12.2;;
56593;SDS011;42474;51.660;5.824;2023-03-03T03:53:30;26.9;;;12.5;;
56593;SDS011;42474;51.660;5.824;2023-03-03T03:58:30;28.7;;;13.2;;
56593;SDS011;42474;51.660;5.824;2023-03-03T04:03:30;26.4;;;11.6;;
56593;SDS011;42474;51.660;5.824;2023-03-03T04:08:30;30.1;;;11.7;;
56593;SDS011;42474;51.660;5.824;2023-03-03T04:13:30;27.9;;;12.2;;
56593;SDS011;42474;51.660;5.824;2023-03-03T04:18:30;28.0;;;12.2;;
56593;SDS011;42474;51.660;5.824;2023-03-03T04:23:30;28.2;;;11.5;;
56593;SDS011;42474;51.660;5.824;2023-03-03T04:28:30;29.2;;;11.6;;
56593;SDS011;42474;51.660;5.824;2023-03-03T04:33:30;30.4;;;12.4;;
56593;SDS011;42474;51.660;5.824;2023-03-03T04:38:30;28.2;;;11.9;;
56593;SDS011;42474;51.660;5.824;2023-03-03T04:43:30;33.3;;;13.0;;
56593;SDS011;42474;51.660;5.824;2023-03-03T04:48:30;33.6;;;12.6;;
56593;SDS011;42474;51.660;5.824;2023-03-03T04:53:30;31.1;;;13.2;;
56593;SDS011;42474;51.660;5.824;2023-03-03T04:58:30;31.7;;;13.4;;
56593;SDS011;42474;51.660;5.824;2023-03-03T05:03:30;31.5;;;12.1;;
56593;SDS011;42474;51.660;5.824;2023-03-03T05:08:30;34.2;;;13.2;;
56593;SDS011;42474;51.660;5.824;2023-03-03T05:13:30;31.5;;;12.4;;
56593;SDS011;42474;51.660;5.824;2023-03-03T05:18:30;31.8;;;12.9;;
56593;SDS011;42474;51.660;5.824;2023-03-03T05:23:30;31.6;;;12.8;;
56593;SDS011;42474;51.660;5.824;2023-03-03T05:28:30;30.9;;;14.7;;
56593;SDS011;42474;51.660;5.824;2023-03-03T05:33:30;29.3;;;13.0;;
56593;SDS011;42474;51.660;5.824;2023-03-03T05:38:30;30.6;;;11.6;;
56593;SDS011;42474;51.660;5.824;2023-03-03T05:43:30;29.4;;;12.6;;
56593;SDS011;42474;51.660;5.824;2023-03-03T05:48:30;25.8;;;11.5;;
56593;SDS011;42474;51.660;5.824;2023-03-03T05:53:30;27.5;;;12.3;;
56593;SDS011;42474;51.660;5.824;2023-03-03T05:58:30;28.3;;;11.9;;
56593;SDS011;42474;51.660;5.824;2023-03-03T06:03:30;29.6;;;11.9;;
56593;SDS011;42474;51.660;5.824;2023-03-03T06:08:30;27.9;;;12.4;;
56593;SDS011;42474;51.660;5.824;2023-03-03T06:13:30;29.9;;;12.6;;
56593;SDS011;42474;51.660;5.824;2023-03-03T06:18:30;22.4;;;9.5;;
56593;SDS011;42474;51.660;5.824;2023-03-03T06:23:30;26.9;;;10.8;;
56593;SDS011;42474;51.660;5.824;2023-03-03T06:28:30;26.6;;;11.7;;
56593;SDS011;42474;51.660;5.824;2023-03-03T06:33:30;26.3;;;10.5;;
56593;SDS011;42474;51.660;5.824;2023-03-03T06:38:30;25.6;;;10.9;;
56593;SDS011;42474;51.660;5.824;2023-03-03T06:43:30;25.3;;;10.3;;
56593;SDS011;42474;51.660;5.824;2023-03-03T06:48:30;26.4;;;10.9;;
56593;SDS011;42474;51.660;5.824;2023-03-03T06:53:30;24.2;;;10.3;;
56593;SDS011;42474;51.660;5.824;2023-03-03T06:58:30;25.6;;;11.0;;
56593;SDS011;42474;51.660;5.824;2023-03-03T07:03:31;24.1;;;10.6;;
56593;SDS011;42474;51.660;5.824;2023-03-03T07:08:31;24.3;;;10.6;;
56593;SDS011;42474;51.660;5.824;2023-03-03T07:13:30;23.2;;;10.4;;
56593;SDS011;42474;51.660;5.824;2023-03-03T07:18:50;22.7;;;11.1;;
56593;SDS011;42474;51.660;5.824;2023-03-03T07:23:37;23.0;;;10.0;;
56593;SDS011;42474;51.660;5.824;2023-03-03T07:28:30;24.1;;;11.2;;
56593;SDS011;42474;51.660;5.824;2023-03-03T07:33:30;23.6;;;10.2;;
56593;SDS011;42474;51.660;5.824;2023-03-03T07:38:57;21.2;;;9.2;;
56593;SDS011;42474;51.660;5.824;2023-03-03T07:43:46;23.8;;;10.1;;
56593;SDS011;42474;51.660;5.824;2023-03-03T07:48:35;26.1;;;10.2;;
56593;SDS011;42474;51.660;5.824;2023-03-03T07:53:34;22.7;;;10.5;;
56593;SDS011;42474;51.660;5.824;2023-03-03T07:58:38;20.3;;;9.5;;
56593;SDS011;42474;51.660;5.824;2023-03-03T08:03:32;23.3;;;10.1;;
56593;SDS011;42474;51.660;5.824;2023-03-03T08:08:31;19.7;;;8.9;;
56593;SDS011;42474;51.660;5.824;2023-03-03T08:13:34;21.3;;;9.8;;
56593;SDS011;42474;51.660;5.824;2023-03-03T08:18:36;18.6;;;8.9;;
56593;SDS011;42474;51.660;5.824;2023-03-03T08:23:30;18.7;;;8.9;;
56593;SDS011;42474;51.660;5.824;2023-03-03T08:28:30;20.0;;;9.3;;
56593;SDS011;42474;51.660;5.824;2023-03-03T08:33:30;20.3;;;9.1;;
56593;SDS011;42474;51.660;5.824;2023-03-03T08:38:30;16.6;;;8.7;;
56593;SDS011;42474;51.660;5.824;2023-03-03T08:43:30;18.3;;;8.3;;
56593;SDS011;42474;51.660;5.824;2023-03-03T08:48:30;19.2;;;9.0;;
56593;SDS011;42474;51.660;5.824;2023-03-03T08:53:30;20.0;;;8.7;;
56593;SDS011;42474;51.660;5.824;2023-03-03T08:58:30;18.6;;;9.2;;
56593;SDS011;42474;51.660;5.824;2023-03-03T09:03:30;19.9;;;9.3;;
56593;SDS011;42474;51.660;5.824;2023-03-03T09:08:30;17.8;;;8.8;;
56593;SDS011;42474;51.660;5.824;2023-03-03T09:13:30;21.2;;;9.3;;
56593;SDS011;42474;51.660;5.824;2023-03-03T09:18:31;17.2;;;7.9;;
56593;SDS011;42474;51.660;5.824;2023-03-03T09:23:35;18.4;;;8.2;;
56593;SDS011;42474;51.660;5.824;2023-03-03T09:28:31;18.1;;;7.8;;
56593;SDS011;42474;51.660;5.824;2023-03-03T09:33:41;16.2;;;7.4;;
56593;SDS011;42474;51.660;5.824;2023-03-03T09:38:32;16.7;;;8.2;;
56593;SDS011;42474;51.660;5.824;2023-03-03T09:44:32;15.4;;;7.0;;
56593;SDS011;42474;51.660;5.824;2023-03-03T09:50:28;25.0;;;7.4;;
56593;SDS011;42474;51.660;5.824;2023-03-03T09:55:44;13.9;;;7.1;;
56593;SDS011;42474;51.660;5.824;2023-03-03T10:00:19;13.6;;;6.6;;
56593;SDS011;42474;51.660;5.824;2023-03-03T10:06:44;17.6;;;7.8;;
56593;SDS011;42474;51.660;5.824;2023-03-03T10:11:29;14.4;;;7.5;;
56593;SDS011;42474;51.660;5.824;2023-03-03T10:16:56;16.4;;;7.9;;
56593;SDS011;42474;51.660;5.824;2023-03-03T10:21:21;16.2;;;7.7;;
56593;SDS011;42474;51.660;5.824;2023-03-03T10:25:42;14.2;;;7.7;;
56593;SDS011;42474;51.660;5.824;2023-03-03T10:31:21;14.5;;;6.7;;
56593;SDS011;42474;51.660;5.824;2023-03-03T10:36:34;14.5;;;7.2;;
56593;SDS011;42474;51.660;5.824;2023-03-03T10:41:55;14.8;;;7.8;;
56593;SDS011;42474;51.660;5.824;2023-03-03T10:47:30;17.7;;;8.0;;
56593;SDS011;42474;51.660;5.824;2023-03-03T10:53:06;16.7;;;8.2;;
56593;SDS011;42474;51.660;5.824;2023-03-03T10:58:57;15.9;;;8.2;;
56593;SDS011;42474;51.660;5.824;2023-03-03T11:04:27;16.5;;;8.6;;
56593;SDS011;42474;51.660;5.824;2023-03-03T11:08:26;17.5;;;8.5;;
56593;SDS011;42474;51.660;5.824;2023-03-03T11:13:11;15.0;;;7.6;;
56593;SDS011;42474;51.660;5.824;2023-03-03T11:19:00;15.1;;;7.8;;
56593;SDS011;42474;51.660;5.824;2023-03-03T11:24:05;16.3;;;7.6;;
56593;SDS011;42474;51.660;5.824;2023-03-03T11:30:08;17.1;;;7.7;;
56593;SDS011;42474;51.660;5.824;2023-03-03T11:34:51;14.5;;;7.2;;
56593;SDS011;42474;51.660;5.824;2023-03-03T11:39:15;13.2;;;7.3;;
56593;SDS011;42474;51.660;5.824;2023-03-03T11:39:29;15.1;;;7.7;;
56593;SDS011;42474;51.660;5.824;2023-03-03T11:43:50;14.4;;;7.2;;
56593;SDS011;42474;51.660;5.824;2023-03-03T11:48:38;15.6;;;7.0;;
56593;SDS011;42474;51.660;5.824;2023-03-03T11:54:00;13.9;;;8.3;;
56593;SDS011;42474;51.660;5.824;2023-03-03T11:58:34;14.6;;;7.3;;
56593;SDS011;42474;51.660;5.824;2023-03-03T12:03:40;13.4;;;6.9;;
56593;SDS011;42474;51.660;5.824;2023-03-03T12:09:08;14.0;;;7.0;;
56593;SDS011;42474;51.660;5.824;2023-03-03T12:14:11;12.4;;;6.4;;
56593;SDS011;42474;51.660;5.824;2023-03-03T12:19:08;15.9;;;7.4;;
56593;SDS011;42474;51.660;5.824;2023-03-03T12:24:30;13.0;;;7.3;;
56593;SDS011;42474;51.660;5.824;2023-03-03T12:28:52;12.5;;;7.4;;
56593;SDS011;42474;51.660;5.824;2023-03-03T12:33:51;11.6;;;6.3;;
56593;SDS011;42474;51.660;5.824;2023-03-03T12:39:11;12.5;;;6.7;;
56593;SDS011;42474;51.660;5.824;2023-03-03T12:43:59;134.7;;;18.6;;
56593;SDS011;42474;51.660;5.824;2023-03-03T12:48:37;69.8;;;13.0;;
56593;SDS011;42474;51.660;5.824;2023-03-03T12:54:11;11.2;;;7.0;;
56593;SDS011;42474;51.660;5.824;2023-03-03T12:58:39;11.2;;;6.8;;
56593;SDS011;42474;51.660;5.824;2023-03-03T13:04:02;12.5;;;7.1;;
56593;SDS011;42474;51.660;5.824;2023-03-03T13:08:51;11.5;;;7.0;;
56593;SDS011;42474;51.660;5.824;2023-03-03T13:13:59;11.7;;;7.1;;
56593;SDS011;42474;51.660;5.824;2023-03-03T13:18:38;10.7;;;6.4;;
56593;SDS011;42474;51.660;5.824;2023-03-03T13:25:50;10.1;;;6.4;;
56593;SDS011;42474;51.660;5.824;2023-03-03T13:30:34;10.2;;;6.5;;
56593;SDS011;42474;51.660;5.824;2023-03-03T13:35:53;10.0;;;6.3;;
56593;SDS011;42474;51.660;5.824;2023-03-03T13:40:24;11.1;;;5.8;;
56593;SDS011;42474;51.660;5.824;2023-03-03T13:45:49;8.5;;;5.5;;
56593;SDS011;42474;51.660;5.824;2023-03-03T13:51:02;9.7;;;5.4;;
56593;SDS011;42474;51.660;5.824;2023-03-03T13:56:12;9.2;;;5.6;;
56593;SDS011;42474;51.660;5.824;2023-03-03T14:01:25;9.6;;;5.9;;
56593;SDS011;42474;51.660;5.824;2023-03-03T14:06:20;8.6;;;5.5;;
56593;SDS011;42474;51.660;5.824;2023-03-03T14:10:28;9.4;;;5.5;;
56593;SDS011;42474;51.660;5.824;2023-03-03T14:15:35;8.6;;;4.8;;
56593;SDS011;42474;51.660;5.824;2023-03-03T14:20:28;9.7;;;4.6;;
56593;SDS011;42474;51.660;5.824;2023-03-03T14:25:22;7.0;;;4.5;;
56593;SDS011;42474;51.660;5.824;2023-03-03T14:30:35;6.9;;;4.5;;
56593;SDS011;42474;51.660;5.824;2023-03-03T14:35:21;7.6;;;4.4;;
56593;SDS011;42474;51.660;5.824;2023-03-03T14:40:31;6.0;;;3.9;;
56593;SDS011;42474;51.660;5.824;2023-03-03T14:45:40;6.4;;;3.9;;
56593;SDS011;42474;51.660;5.824;2023-03-03T14:50:36;5.7;;;3.7;;
56593;SDS011;42474;51.660;5.824;2023-03-03T14:55:46;6.6;;;3.6;;
56593;SDS011;42474;51.660;5.824;2023-03-03T15:00:33;4.5;;;3.2;;
56593;SDS011;42474;51.660;5.824;2023-03-03T15:05:24;4.0;;;3.2;;
56593;SDS011;42474;51.660;5.824;2023-03-03T15:10:32;4.5;;;3.0;;
56593;SDS011;42474;51.660;5.824;2023-03-03T15:15:24;5.3;;;3.5;;
56593;SDS011;42474;51.660;5.824;2023-03-03T15:20:46;6.8;;;4.2;;
56593;SDS011;42474;51.660;5.824;2023-03-03T15:25:43;6.3;;;3.8;;
56593;SDS011;42474;51.660;5.824;2023-03-03T15:30:36;5.8;;;3.2;;
56593;SDS011;42474;51.660;5.824;2023-03-03T15:35:41;5.7;;;3.6;;
56593;SDS011;42474;51.660;5.824;2023-03-03T15:40:45;7.3;;;3.8;;
56593;SDS011;42474;51.660;5.824;2023-03-03T15:46:05;3.9;;;2.7;;
56593;SDS011;42474;51.660;5.824;2023-03-03T15:51:58;6.2;;;3.2;;
56593;SDS011;42474;51.660;5.824;2023-03-03T15:57:09;3.9;;;3.3;;
56593;SDS011;42474;51.660;5.824;2023-03-03T16:02:16;4.6;;;3.3;;
56593;SDS011;42474;51.660;5.824;2023-03-03T16:05:27;5.0;;;3.0;;
56593;SDS011;42474;51.660;5.824;2023-03-03T16:10:43;5.8;;;3.2;;
56593;SDS011;42474;51.660;5.824;2023-03-03T16:16:38;5.1;;;3.4;;
56593;SDS011;42474;51.660;5.824;2023-03-03T16:21:49;5.7;;;3.4;;
56593;SDS011;42474;51.660;5.824;2023-03-03T16:26:50;5.6;;;3.6;;
56593;SDS011;42474;51.660;5.824;2023-03-03T16:31:27;4.9;;;3.5;;
56593;SDS011;42474;51.660;5.824;2023-03-03T16:35:32;5.8;;;3.3;;
56593;SDS011;42474;51.660;5.824;2023-03-03T16:40:36;7.7;;;2.9;;
56593;SDS011;42474;51.660;5.824;2023-03-03T16:45:34;5.1;;;2.6;;
56593;SDS011;42474;51.660;5.824;2023-03-03T16:50:45;3.6;;;2.1;;
56593;SDS011;42474;51.660;5.824;2023-03-03T16:55:29;4.4;;;2.4;;
56593;SDS011;42474;51.660;5.824;2023-03-03T17:00:47;4.2;;;2.7;;
56593;SDS011;42474;51.660;5.824;2023-03-03T17:05:41;2.7;;;2.2;;
56593;SDS011;42474;51.660;5.824;2023-03-03T17:10:52;3.5;;;2.1;;
56593;SDS011;42474;51.660;5.824;2023-03-03T17:16:39;5.6;;;2.6;;
56593;SDS011;42474;51.660;5.824;2023-03-03T17:21:02;4.6;;;2.3;;
56593;SDS011;42474;51.660;5.824;2023-03-03T17:26:30;5.0;;;3.0;;
56593;SDS011;42474;51.660;5.824;2023-03-03T17:31:44;4.2;;;2.4;;
56593;SDS011;42474;51.660;5.824;2023-03-03T17:37:28;5.4;;;2.7;;
56593;SDS011;42474;51.660;5.824;2023-03-03T17:42:14;4.9;;;3.2;;
56593;SDS011;42474;51.660;5.824;2023-03-03T17:45:58;4.5;;;3.1;;
56593;SDS011;42474;51.660;5.824;2023-03-03T17:51:18;5.8;;;3.1;;
56593;SDS011;42474;51.660;5.824;2023-03-03T17:56:37;3.2;;;2.6;;
56593;SDS011;42474;51.660;5.824;2023-03-03T18:02:28;3.8;;;2.8;;
56593;SDS011;42474;51.660;5.824;2023-03-03T18:07:51;4.0;;;3.1;;
56593;SDS011;42474;51.660;5.824;2023-03-03T18:14:09;4.6;;;2.6;;
56593;SDS011;42474;51.660;5.824;2023-03-03T18:19:27;2.6;;;2.2;;
56593;SDS011;42474;51.660;5.824;2023-03-03T18:22:55;3.4;;;2.3;;
56593;SDS011;42474;51.660;5.824;2023-03-03T18:25:51;3.1;;;2.2;;
56593;SDS011;42474;51.660;5.824;2023-03-03T18:30:30;4.8;;;2.6;;
56593;SDS011;42474;51.660;5.824;2023-03-03T18:35:36;3.3;;;2.3;;
56593;SDS011;42474;51.660;5.824;2023-03-03T18:40:33;3.8;;;2.2;;
56593;SDS011;42474;51.660;5.824;2023-03-03T18:45:55;4.4;;;2.2;;
56593;SDS011;42474;51.660;5.824;2023-03-03T18:50:36;3.2;;;1.7;;
56593;SDS011;42474;51.660;5.824;2023-03-03T18:55:24;2.6;;;1.8;;
56593;SDS011;42474;51.660;5.824;2023-03-03T19:00:29;5.5;;;2.5;;
56593;SDS011;42474;51.660;5.824;2023-03-03T19:05:35;6.5;;;2.4;;
56593;SDS011;42474;51.660;5.824;2023-03-03T19:10:54;6.5;;;2.8;;
56593;SDS011;42474;51.660;5.824;2023-03-03T19:15:48;3.4;;;2.2;;
56593;SDS011;42474;51.660;5.824;2023-03-03T19:20:24;4.1;;;2.3;;
56593;SDS011;42474;51.660;5.824;2023-03-03T19:25:26;3.4;;;2.0;;
56593;SDS011;42474;51.660;5.824;2023-03-03T19:31:15;4.4;;;2.3;;
56593;SDS011;42474;51.660;5.824;2023-03-03T19:36:13;4.2;;;2.1;;
56593;SDS011;42474;51.660;5.824;2023-03-03T19:41:56;2.8;;;2.3;;
56593;SDS011;42474;51.660;5.824;2023-03-03T19:47:02;3.7;;;2.3;;
56593;SDS011;42474;51.660;5.824;2023-03-03T19:52:17;4.0;;;2.5;;
56593;SDS011;42474;51.660;5.824;2023-03-03T19:56:57;4.8;;;2.5;;
56593;SDS011;42474;51.660;5.824;2023-03-03T20:02:12;6.7;;;3.6;;
56593;SDS011;42474;51.660;5.824;2023-03-03T20:07:16;7.0;;;3.1;;
56593;SDS011;42474;51.660;5.824;2023-03-03T20:12:24;4.1;;;2.3;;
56593;SDS011;42474;51.660;5.824;2023-03-03T20:16:41;6.2;;;2.6;;
56593;SDS011;42474;51.660;5.824;2023-03-03T20:21:40;5.0;;;2.7;;
56593;SDS011;42474;51.660;5.824;2023-03-03T20:26:20;7.2;;;3.2;;
56593;SDS011;42474;51.660;5.824;2023-03-03T20:31:31;6.2;;;2.8;;
56593;SDS011;42474;51.660;5.824;2023-03-03T20:36:57;6.9;;;2.8;;
56593;SDS011;42474;51.660;5.824;2023-03-03T20:42:22;7.9;;;3.4;;
56593;SDS011;42474;51.660;5.824;2023-03-03T20:48:08;9.9;;;4.6;;
56593;SDS011;42474;51.660;5.824;2023-03-03T20:53:23;10.3;;;3.3;;
56593;SDS011;42474;51.660;5.824;2023-03-03T20:58:14;10.1;;;3.0;;
56593;SDS011;42474;51.660;5.824;2023-03-03T21:02:34;9.2;;;2.7;;
56593;SDS011;42474;51.660;5.824;2023-03-03T21:05:22;8.4;;;3.0;;
56593;SDS011;42474;51.660;5.824;2023-03-03T21:10:24;10.0;;;3.4;;
56593;SDS011;42474;51.660;5.824;2023-03-03T21:15:30;9.0;;;2.6;;
56593;SDS011;42474;51.660;5.824;2023-03-03T21:20:25;10.9;;;3.6;;
56593;SDS011;42474;51.660;5.824;2023-03-03T21:25:44;9.8;;;3.1;;
56593;SDS011;42474;51.660;5.824;2023-03-03T21:30:22;9.7;;;3.0;;
56593;SDS011;42474;51.660;5.824;2023-03-03T21:35:22;13.4;;;3.1;;
56593;SDS011;42474;51.660;5.824;2023-03-03T21:40:27;8.4;;;2.3;;
56593;SDS011;42474;51.660;5.824;2023-03-03T21:45:22;9.4;;;2.7;;
56593;SDS011;42474;51.660;5.824;2023-03-03T21:50:22;9.5;;;2.6;;
56593;SDS011;42474;51.660;5.824;2023-03-03T21:55:22;10.5;;;2.9;;
56593;SDS011;42474;51.660;5.824;2023-03-03T22:00:22;12.1;;;3.3;;
56593;SDS011;42474;51.660;5.824;2023-03-03T22:05:22;11.5;;;2.4;;
56593;SDS011;42474;51.660;5.824;2023-03-03T22:10:22;8.8;;;2.6;;
56593;SDS011;42474;51.660;5.824;2023-03-03T22:15:22;12.4;;;2.8;;
56593;SDS011;42474;51.660;5.824;2023-03-03T22:20:22;8.9;;;2.6;;
56593;SDS011;42474;51.660;5.824;2023-03-03T22:25:22;11.3;;;2.4;;
56593;SDS011;42474;51.660;5.824;2023-03-03T22:30:22;8.3;;;2.3;;
56593;SDS011;42474;51.660;5.824;2023-03-03T22:35:22;9.7;;;2.6;;
56593;SDS011;42474;51.660;5.824;2023-03-03T22:40:22;10.7;;;2.8;;
56593;SDS011;42474;51.660;5.824;2023-03-03T22:45:22;10.0;;;2.6;;
56593;SDS011;42474;51.660;5.824;2023-03-03T22:50:22;11.3;;;2.7;;
56593;SDS011;42474;51.660;5.824;2023-03-03T22:55:22;8.1;;;2.5;;
56593;SDS011;42474;51.660;5.824;2023-03-03T23:00:22;10.7;;;2.8;;
56593;SDS011;42474;51.660;5.824;2023-03-03T23:05:22;10.6;;;3.0;;
56593;SDS011;42474;51.660;5.824;2023-03-03T23:10:22;9.4;;;2.5;;
56593;SDS011;42474;51.660;5.824;2023-03-03T23:15:22;9.1;;;2.7;;
56593;SDS011;42474;51.660;5.824;2023-03-03T23:20:25;9.5;;;3.2;;
56593;SDS011;42474;51.660;5.824;2023-03-03T23:25:23;11.2;;;2.7;;
56593;SDS011;42474;51.660;5.824;2023-03-03T23:30:22;9.2;;;2.7;;
56593;SDS011;42474;51.660;5.824;2023-03-03T23:35:22;10.8;;;3.2;;
56593;SDS011;42474;51.660;5.824;2023-03-03T23:40:22;14.7;;;3.0;;
56593;SDS011;42474;51.660;5.824;2023-03-03T23:45:22;15.0;;;2.9;;
56593;SDS011;42474;51.660;5.824;2023-03-03T23:50:22;12.0;;;3.3;;
56593;SDS011;42474;51.660;5.824;2023-03-03T23:55:22;13.3;;;3.1;;
